Weather reports worldwide

Advertisment
Ell, Netherlands (6377): temperature & dewpoint: 11.10.2019 23:00:00 - 17.10.2019 23:00:00 (CEST)Ell, Netherlands (6377): temperature 5cm: 11.10.2019 23:00:00 - 17.10.2019 23:00:00 (CEST)Ell, Netherlands (6377): wind speed & gusts: 11.10.2019 23:00:00 - 17.10.2019 23:00:00 (CEST)Ell, Netherlands (6377): wind direction: 11.10.2019 23:00:00 - 17.10.2019 23:00:00 (CEST)Ell, Netherlands (6377): visibility: 11.10.2019 23:00:00 - 17.10.2019 23:00:00 (CEST)Ell, Netherlands (6377): precipitation: 11.10.2019 23:00:00 - 17.10.2019 23:00:00 (CEST)
Date & Time tt [°C] td [°C] tt 5cm [°C] ff [km/h] ff [kn] fx [km/h] fx [kn] dd vv [km] rr [mm]
17.10.2019 23:00:00 11,8 11,8 10,5 7 4 7 4 SSE 11 0,0
17.10.2019 22:00:00 12,8 12,7 11,9 7 4 11 6 S 34 0,0
17.10.2019 21:00:00 13,2 13,1 13,0 7 4 14 8 S 48 0,0
17.10.2019 20:00:00 13,2 13,2 13,2 7 4 14 8 SSE 11 0,1
17.10.2019 19:00:00 13,2 13,1 13,2 11 6 22 12 SW 4,0 1,7
17.10.2019 18:00:00 13,6 13,6 13,6 4 2 25 14 E 27 0,0
17.10.2019 17:00:00 13,3 13,1 13,5 7 4 14 8 NNW 17 0,0
17.10.2019 16:00:00 14,1 12,9 14,2 4 2 18 10 SW 39 0,0
17.10.2019 15:00:00 14,5 12,9 14,7 11 6 25 14 S 46 0,0
17.10.2019 14:00:00 14,9 11,6 15,4 18 10 25 14 S 43 0,0
17.10.2019 13:00:00 15,3 12,4 15,5 11 6 40 21 SW 31 0,0
17.10.2019 12:00:00 15,1 13,1 15,3 14 8 25 14 SSW 23 0,0
17.10.2019 11:00:00 13,8 13,1 13,8 11 6 22 12 SW 11 0,0
17.10.2019 10:00:00 13,4 13,2 13,5 14 8 22 12 WSW 7 0,1
17.10.2019 09:00:00 13,6 13,5 13,6 14 8 18 10 W 3,0 0,3
17.10.2019 08:00:00 13,8 13,7 13,7 11 6 22 12 SSW 40 0,0
17.10.2019 07:00:00 13,9 13,5 13,8 14 8 25 14 SSW 14 0,0
17.10.2019 06:00:00 13,8 13,4 13,6 14 8 29 16 S 49 0,0
17.10.2019 05:00:00 13,9 13,2 13,6 22 12 29 16 S 10 0,0
17.10.2019 04:00:00 14,0 13,2 13,7 18 10 32 18 S 50 0,0
17.10.2019 03:00:00 13,7 13,1 13,5 18 10 32 18 S 46 0,2
17.10.2019 02:00:00 13,6 13,2 13,4 22 12 32 18 S 19 0,3
17.10.2019 01:00:00 13,3 13,2 13,2 18 10 29 16 S 8 0,4
17.10.2019 00:00:00 13,4 13,0 13,3 22 12 32 18 S 3,6 0,3
16.10.2019 23:00:00 13,8 13,1 13,5 22 12 32 18 S 13 0,4
16.10.2019 22:00:00 13,7 13,3 13,4 22 12 32 18 S 16 0,4
16.10.2019 21:00:00 13,6 13,5 13,5 18 10 36 19 S 4,9 0,4
16.10.2019 20:00:00 13,8 13,4 13,6 18 10 29 16 S 7 0,2
16.10.2019 19:00:00 13,8 13,4 13,6 14 8 40 21 S 42 0,1
16.10.2019 18:00:00 14,0 13,5 13,8 22 12 32 18 S 15 0,0
16.10.2019 17:00:00 14,1 13,4 14,3 18 10 32 18 S 11 0,0
16.10.2019 16:00:00 14,7 12,9 14,7 25 14 32 18 SSW 47 0,0
16.10.2019 15:00:00 14,4 13,1 14,4 18 10 29 16 S 43 0,0
16.10.2019 14:00:00 13,3 13,1 13,3 18 10 32 18 S 3,5 1,4
16.10.2019 13:00:00 13,5 12,4 13,8 25 14 43 23 S 9 0,0
16.10.2019 12:00:00 14,0 11,6 14,0 25 14 36 19 S 25 0,0
16.10.2019 11:00:00 13,8 10,9 14,5 22 12 36 19 S 27 0,0
16.10.2019 10:00:00 12,5 10,6 12,6 22 12 29 16 S 25 0,0
16.10.2019 09:00:00 11,0 10,0 10,5 11 6 22 12 S 33 0,0
16.10.2019 08:00:00 10,8 9,9 10,3 14 8 25 14 S 33 0,0
16.10.2019 07:00:00 11,3 10,6 10,8 14 8 22 12 SSW 34 0,0
16.10.2019 06:00:00 11,6 11,0 11,4 14 8 25 14 SSW 20 0,0
16.10.2019 05:00:00 11,5 10,6 11,1 14 8 22 12 S 38 0,0
16.10.2019 04:00:00 11,4 10,6 10,9 14 8 29 16 SSW 32 0,0
16.10.2019 03:00:00 12,2 11,3 11,8 14 8 25 14 SSW 31 0,0
16.10.2019 02:00:00 12,6 11,8 12,3 18 10 22 12 SSW 27 0,0
16.10.2019 01:00:00 12,4 12,1 12,0 11 6 14 8 SSW 17 0,0
16.10.2019 00:00:00 12,7 12,4 12,5 11 6 18 10 SSW 16 0,0
15.10.2019 23:00:00 13,2 12,8 13,0 14 8 18 10 SSW 18 0,0
15.10.2019 22:00:00 13,4 13,3 13,1 11 6 14 8 SSW 13 0,0
15.10.2019 21:00:00 13,4 13,4 13,3 11 6 14 8 S 10 0,0
15.10.2019 20:00:00 13,6 13,6 13,4 7 4 11 6 S 12 0,0
15.10.2019 19:00:00 13,6 13,6 13,5 7 4 14 8 S 12 0,0
15.10.2019 18:00:00 14,2 14,0 14,2 7 4 11 6 S 11 0,1
15.10.2019 17:00:00 14,6 14,1 14,7 11 6 14 8 S 15 0,0
15.10.2019 16:00:00 14,8 14,0 15,0 7 4 18 10 S 19 0,1
15.10.2019 15:00:00 14,8 14,3 15,1 11 6 18 10 SSW 12 0,0
15.10.2019 14:00:00 15,1 14,2 15,3 11 6 18 10 SSW 27 0,9
15.10.2019 13:00:00 15,3 14,8 - 11 6 18 10 S 10 0,2
15.10.2019 12:00:00 15,6 14,6 15,8 14 8 18 10 S 32 0,0
15.10.2019 11:00:00 15,4 14,7 15,6 11 6 14 8 S 35 0,0
15.10.2019 10:00:00 14,9 14,2 14,8 11 6 18 10 SW 19 0,0
15.10.2019 09:00:00 15,1 13,4 14,4 11 6 14 8 SSW 44 0,0
15.10.2019 08:00:00 14,7 13,1 13,8 7 4 11 6 SW 48 0,0
15.10.2019 07:00:00 14,7 13,0 13,1 7 4 14 8 SW 34 0,0
15.10.2019 06:00:00 14,5 13,4 11,9 4 2 11 6 SSW 29 0,0
15.10.2019 05:00:00 14,1 13,2 11,7 7 4 7 4 SSE 21 0,0
15.10.2019 04:00:00 15,2 13,5 12,5 7 4 14 8 SE 27 0,0
15.10.2019 03:00:00 14,5 13,2 12,6 11 6 14 8 SSE 26 0,0
15.10.2019 02:00:00 14,6 13,2 12,6 7 4 14 8 SSE 27 0,0
15.10.2019 01:00:00 15,8 13,4 13,8 11 6 14 8 SE 35 0,0
15.10.2019 00:00:00 16,0 13,7 13,6 7 4 11 6 SE 27 0,0
14.10.2019 23:00:00 17,9 14,7 16,6 7 4 14 8 ESE 18 0,0
14.10.2019 22:00:00 17,7 14,6 16,2 7 4 18 10 ESE 36 0,0
14.10.2019 21:00:00 18,9 14,7 17,6 11 6 18 10 ESE 42 0,0
14.10.2019 20:00:00 18,6 15,3 16,6 11 6 14 8 ESE 34 0,0
14.10.2019 19:00:00 18,3 15,6 15,6 4 2 14 8 SSE 25 0,0
14.10.2019 18:00:00 20,1 16,5 19,0 11 6 18 10 ESE 24 0,0
14.10.2019 17:00:00 22,0 16,8 21,9 11 6 18 10 ESE 26 0,0
14.10.2019 16:00:00 21,9 16,9 21,8 11 6 22 12 E 26 0,0
14.10.2019 15:00:00 20,9 16,3 20,7 11 6 22 12 E 31 0,0
14.10.2019 14:00:00 20,7 17,0 21,4 11 6 22 12 E 31 0,0
14.10.2019 13:00:00 19,1 15,7 20,8 11 6 18 10 E 25 0,0
14.10.2019 12:00:00 17,5 15,0 18,5 11 6 25 14 E 23 0,0
14.10.2019 11:00:00 16,5 14,5 17,3 11 6 14 8 ENE 29 0,0
14.10.2019 10:00:00 14,4 13,8 14,0 7 4 14 8 ENE 25 0,0
14.10.2019 09:00:00 12,7 12,6 12,1 7 4 11 6 ENE 7 0,0
14.10.2019 08:00:00 9,5 9,4 8,3 0 0 4 2 N 0,5 0,0
14.10.2019 07:00:00 10,6 10,5 7,6 4 2 7 4 ENE 0,2 0,0
14.10.2019 06:00:00 10,4 10,4 7,6 4 2 7 4 SSE 0,2 0,0
14.10.2019 05:00:00 11,2 11,2 8,9 7 4 7 4 SE 16 0,0
14.10.2019 04:00:00 13,6 12,7 12,1 4 2 11 6 SSW 43 0,0
14.10.2019 03:00:00 14,0 12,5 13,1 7 4 18 10 SW 48 0,0
14.10.2019 02:00:00 15,2 13,0 14,6 7 4 22 12 SW 47 0,0
14.10.2019 01:00:00 15,9 13,4 15,4 11 6 22 12 SW 47 0,0
14.10.2019 00:00:00 16,2 13,7 15,9 14 8 32 18 WSW 40 0,0
13.10.2019 23:00:00 17,3 14,8 17,1 18 10 32 18 W 47 0,0
13.10.2019 22:00:00 20,3 15,9 19,6 18 10 40 21 SW 31 0,0
13.10.2019 21:00:00 21,5 15,2 20,7 25 14 36 19 SW 35 0,0
13.10.2019 20:00:00 21,2 15,7 19,8 14 8 22 12 SSW 35 0,0
13.10.2019 19:00:00 21,5 15,5 20,6 14 8 29 16 S 38 0,0
13.10.2019 18:00:00 22,6 15,4 21,9 18 10 43 23 SSW 37 0,0
13.10.2019 17:00:00 23,3 15,6 22,8 22 12 43 23 SSW 36 0,0
13.10.2019 16:00:00 24,6 15,4 24,4 29 16 47 25 S 33 0,0
13.10.2019 15:00:00 24,3 15,7 24,6 29 16 43 23 S 27 0,0
13.10.2019 14:00:00 23,1 15,9 23,5 25 14 32 18 S 15 0,0
13.10.2019 13:00:00 21,2 15,6 21,6 22 12 43 23 S 35 0,0
13.10.2019 12:00:00 19,7 15,8 19,3 25 14 36 19 S 35 0,0
13.10.2019 11:00:00 19,6 16,0 19,2 22 12 36 19 S 31 0,0
13.10.2019 10:00:00 18,8 16,2 17,5 22 12 32 18 S 30 0,0
13.10.2019 09:00:00 17,4 16,0 16,8 18 10 29 16 S 25 0,0
13.10.2019 08:00:00 15,5 15,2 14,8 11 6 18 10 S 16 0,3
13.10.2019 07:00:00 15,0 14,7 13,8 11 6 14 8 S 15 0,0
13.10.2019 06:00:00 14,4 14,2 13,3 7 4 11 6 SSE 17 0,0
13.10.2019 05:00:00 14,1 14,0 12,9 7 4 14 8 S 15 0,0
13.10.2019 04:00:00 14,7 14,1 13,9 11 6 18 10 S 18 0,0
13.10.2019 03:00:00 14,6 14,0 13,9 11 6 18 10 S 18 0,0
13.10.2019 02:00:00 14,8 14,1 14,0 11 6 14 8 S 20 0,0
13.10.2019 01:00:00 14,4 13,7 13,6 11 6 14 8 S 23 0,0
13.10.2019 00:00:00 15,0 13,7 14,1 11 6 22 12 SSW 33 0,0
12.10.2019 23:00:00 15,4 13,6 14,5 14 8 18 10 S 29 0,0
12.10.2019 22:00:00 16,5 14,0 16,0 11 6 18 10 SSW 28 0,0
12.10.2019 21:00:00 16,8 14,0 15,9 11 6 22 12 S 34 0,0
12.10.2019 20:00:00 16,0 13,7 15,4 11 6 14 8 S 21 0,0
12.10.2019 19:00:00 16,5 13,9 15,4 7 4 11 6 S 26 0,0
12.10.2019 18:00:00 17,5 14,1 17,2 4 2 18 10 SSW 36 0,0
12.10.2019 17:00:00 17,8 13,3 17,6 11 6 32 18 SW 41 0,0
12.10.2019 16:00:00 18,0 12,3 17,8 22 12 43 23 SSW 38 0,0
12.10.2019 15:00:00 19,0 13,0 19,2 25 14 43 23 SSW 39 0,0
12.10.2019 14:00:00 19,2 13,1 18,6 25 14 36 19 SSW 43 0,0
12.10.2019 13:00:00 18,4 13,1 18,4 25 14 36 19 SSW 26 0,0
12.10.2019 12:00:00 17,1 12,7 17,8 25 14 40 21 SSW 33 0,0
12.10.2019 11:00:00 16,5 12,7 16,9 29 16 43 23 SSW 30 0,0
12.10.2019 10:00:00 15,5 12,2 15,6 25 14 40 21 SSW 34 0,0
12.10.2019 09:00:00 14,7 11,8 14,5 22 12 32 18 SSW 45 0,0
12.10.2019 08:00:00 14,1 11,5 13,2 22 12 36 19 SSW 46 0,0
12.10.2019 07:00:00 14,3 11,6 13,5 22 12 36 19 SSW 49 0,0
12.10.2019 06:00:00 14,7 11,5 13,6 22 12 32 18 SSW 44 0,0
12.10.2019 05:00:00 14,4 11,5 13,3 18 10 29 16 SSW 47 0,0
12.10.2019 04:00:00 14,8 11,7 14,0 18 10 36 19 SSW 46 0,0
12.10.2019 03:00:00 15,9 11,9 15,1 18 10 32 18 SSW 41 0,0
12.10.2019 02:00:00 16,6 12,1 15,6 22 12 36 19 SSW 41 0,0
12.10.2019 01:00:00 16,1 12,3 15,5 22 12 40 21 S 45 0,0
12.10.2019 00:00:00 17,2 12,4 16,6 22 12 40 21 SSW 43 0,0
11.10.2019 23:00:00 16,8 11,9 15,8 22 12 40 21 SSW 38 0,0

tt = temperature
td = dewpoint
tt 5cm = temperature 5cm
ff = wind speed
fx = gusts
dd = wind direction
vv = visibility
rr = precipitation

Next stations